createdAt,value
2023-01-11T00:00:45.332Z,9.25
2023-01-11T00:03:17.501Z,9.24
2023-01-11T00:05:47.189Z,9.21
2023-01-11T00:08:19.402Z,9.22
2023-01-11T00:10:49.289Z,9.24
2023-01-11T00:13:19.546Z,9.25
2023-01-11T00:15:51.593Z,9.28
2023-01-11T00:18:22.132Z,9.42
2023-01-11T00:20:52.796Z,9.51
2023-01-11T00:23:22.865Z,9.33
2023-01-11T00:25:53.052Z,9.33
2023-01-11T00:28:22.966Z,9.30
2023-01-11T00:30:53.948Z,9.27
2023-01-11T00:33:24.438Z,9.35
2023-01-11T00:35:56.944Z,9.24
2023-01-11T00:38:40.591Z,9.25
2023-01-11T00:41:25.216Z,9.52
2023-01-11T00:44:12.894Z,9.55
2023-01-11T00:47:01.720Z,9.44
2023-01-11T00:49:31.920Z,9.39
2023-01-11T00:52:02.142Z,9.43
2023-01-11T00:54:31.456Z,9.35
2023-01-11T00:57:01.525Z,9.47
2023-01-11T00:59:31.218Z,9.37
2023-01-11T01:02:02.226Z,9.42
2023-01-11T01:04:32.374Z,9.33
2023-01-11T01:07:02.785Z,9.35
2023-01-11T01:09:32.661Z,9.35
2023-01-11T01:12:03.826Z,9.26
2023-01-11T01:14:33.661Z,9.48
2023-01-11T01:17:08.167Z,9.42
2023-01-11T01:19:39.665Z,9.51
2023-01-11T01:22:09.640Z,9.53
2023-01-11T01:24:39.797Z,9.53
2023-01-11T01:27:09.712Z,9.55
2023-01-11T01:29:39.120Z,9.44
2023-01-11T01:32:10.196Z,9.53
2023-01-11T01:34:40.300Z,9.36
2023-01-11T01:37:12.634Z,9.46
2023-01-11T01:39:41.821Z,9.38
2023-01-11T01:42:15.369Z,9.55
2023-01-11T01:44:59.296Z,9.49
2023-01-11T01:47:41.733Z,9.57
2023-01-11T01:50:18.423Z,9.54
2023-01-11T01:52:52.627Z,9.62
2023-01-11T01:55:27.884Z,9.75
2023-01-11T01:58:00.168Z,9.72
2023-01-11T02:00:33.222Z,9.75
2023-01-11T02:03:04.006Z,9.77
2023-01-11T02:05:36.000Z,9.87
2023-01-11T02:08:11.452Z,9.93
2023-01-11T02:10:41.611Z,9.87
2023-01-11T02:13:14.454Z,10.05
2023-01-11T02:15:43.964Z,10.14
2023-01-11T02:18:15.334Z,10.07
2023-01-11T02:20:56.833Z,9.93
2023-01-11T02:23:53.653Z,10.00
2023-01-11T02:27:07.352Z,9.99
2023-01-11T02:29:49.857Z,10.07
2023-01-11T02:32:28.033Z,10.22
2023-01-11T02:35:07.987Z,10.37
2023-01-11T02:37:49.365Z,10.39
2023-01-11T02:40:25.857Z,10.61
2023-01-11T02:43:19.299Z,10.60
2023-01-11T02:45:57.067Z,10.51
2023-01-11T02:48:34.135Z,10.37
2023-01-11T02:51:07.183Z,10.50
2023-01-11T02:53:42.340Z,10.42
2023-01-11T02:56:21.442Z,10.34
2023-01-11T02:58:55.294Z,10.33
2023-01-11T03:01:28.097Z,10.56
2023-01-11T03:03:58.852Z,10.84
2023-01-11T03:06:33.436Z,10.78
2023-01-11T03:09:20.793Z,10.83
2023-01-11T03:12:21.923Z,10.61
2023-01-11T03:15:05.133Z,10.89
2023-01-11T03:17:47.759Z,10.84
2023-01-11T03:20:25.718Z,10.09
2023-01-11T03:23:06.087Z,10.87
2023-01-11T03:25:44.761Z,10.73
2023-01-11T03:28:23.999Z,10.97
2023-01-11T03:31:01.879Z,10.84
2023-01-11T03:33:39.433Z,10.94
2023-01-11T03:36:18.516Z,10.83
2023-01-11T03:38:53.079Z,10.91
2023-01-11T03:41:26.477Z,10.84
2023-01-11T03:43:58.202Z,10.86
2023-01-11T03:46:33.310Z,10.91
2023-01-11T03:49:06.919Z,10.84
2023-01-11T03:51:39.949Z,10.90
2023-01-11T03:54:11.525Z,10.90
2023-01-11T03:56:48.548Z,10.90
2023-01-11T03:59:20.755Z,10.81
2023-01-11T04:01:50.442Z,10.95
2023-01-11T04:04:21.423Z,10.93
2023-01-11T04:06:51.014Z,10.91
2023-01-11T04:09:20.970Z,10.79
2023-01-11T04:11:50.513Z,10.87
2023-01-11T04:14:19.629Z,11.01
2023-01-11T04:16:48.537Z,10.99
2023-01-11T04:19:17.327Z,10.90
2023-01-11T04:21:47.942Z,11.05
2023-01-11T04:24:18.517Z,10.84
2023-01-11T04:26:47.586Z,11.04
2023-01-11T04:29:16.594Z,10.84
2023-01-11T04:31:45.491Z,10.90
2023-01-11T04:34:15.180Z,10.84
2023-01-11T04:36:44.152Z,10.95
2023-01-11T04:39:14.417Z,10.95
2023-01-11T04:42:00.681Z,10.81
2023-01-11T04:44:29.676Z,10.78
2023-01-11T04:47:01.122Z,10.79
2023-01-11T04:49:29.850Z,10.88
2023-01-11T04:51:58.845Z,10.73
2023-01-11T04:54:31.411Z,10.75
2023-01-11T04:57:00.332Z,10.73
2023-01-11T04:59:29.707Z,10.63
2023-01-11T05:01:59.194Z,10.64
2023-01-11T05:04:28.677Z,10.63
2023-01-11T05:06:57.655Z,10.60
2023-01-11T05:09:26.553Z,10.57
2023-01-11T05:11:56.696Z,10.60
2023-01-11T05:14:27.725Z,10.81
2023-01-11T05:16:56.917Z,10.62
2023-01-11T05:19:25.797Z,10.40
2023-01-11T05:21:54.517Z,10.54
2023-01-11T05:24:23.506Z,10.23
2023-01-11T05:26:53.324Z,10.39
2023-01-11T05:29:23.480Z,10.44
2023-01-11T05:31:52.355Z,10.25
2023-01-11T05:34:21.781Z,10.33
2023-01-11T05:36:50.643Z,10.43
2023-01-11T05:39:19.387Z,10.33
2023-01-11T05:41:48.154Z,10.39
2023-01-11T05:44:34.225Z,10.27
2023-01-11T05:47:08.031Z,9.97
2023-01-11T05:49:36.919Z,10.11
2023-01-11T05:52:08.795Z,10.30
2023-01-11T05:54:37.651Z,10.19
2023-01-11T05:57:10.647Z,10.10
2023-01-11T05:59:39.683Z,10.10
2023-01-11T06:02:10.239Z,9.98
2023-01-11T06:04:39.816Z,9.89
2023-01-11T06:07:10.068Z,10.06
2023-01-11T06:09:39.721Z,9.95
2023-01-11T06:12:09.227Z,9.85
2023-01-11T06:14:41.684Z,9.78
2023-01-11T06:17:12.812Z,9.75
2023-01-11T06:19:44.729Z,9.98
2023-01-11T06:22:14.114Z,9.94
2023-01-11T06:24:43.643Z,9.90
2023-01-11T06:27:12.888Z,9.73
2023-01-11T06:29:42.239Z,9.86
2023-01-11T06:32:13.438Z,9.31
2023-01-11T06:34:42.521Z,9.71
2023-01-11T06:37:13.073Z,9.69
2023-01-11T06:39:42.703Z,9.61
2023-01-11T06:42:12.431Z,9.89
2023-01-11T06:44:42.128Z,9.87
2023-01-11T06:47:13.057Z,9.94
2023-01-11T06:49:44.484Z,9.87
2023-01-11T06:52:13.980Z,9.69
2023-01-11T06:54:43.158Z,9.75
2023-01-11T06:57:13.001Z,9.72
2023-01-11T06:59:43.542Z,9.57
2023-01-11T07:02:14.486Z,9.65
2023-01-11T07:04:43.780Z,9.69
2023-01-11T07:07:13.424Z,9.63
2023-01-11T07:09:43.245Z,9.61
2023-01-11T07:12:12.878Z,9.60
2023-01-11T07:14:41.931Z,9.32
2023-01-11T07:17:11.648Z,8.71
2023-01-11T07:19:42.548Z,9.57
2023-01-11T07:22:12.112Z,9.31
2023-01-11T07:24:44.738Z,9.34
2023-01-11T07:27:16.087Z,9.22
2023-01-11T07:29:45.574Z,9.37
2023-01-11T07:32:15.847Z,9.25
2023-01-11T07:34:46.586Z,9.08
2023-01-11T07:37:28.198Z,9.38
2023-01-11T07:39:58.773Z,9.36
2023-01-11T07:42:46.203Z,9.21
2023-01-11T07:45:15.865Z,9.39
2023-01-11T07:47:45.854Z,9.26
2023-01-11T07:50:17.362Z,9.11
2023-01-11T07:52:49.165Z,8.94
2023-01-11T07:55:18.940Z,9.11
2023-01-11T07:57:48.545Z,8.94
2023-01-11T08:00:18.606Z,9.00
2023-01-11T08:02:52.598Z,8.68
2023-01-11T08:05:24.202Z,8.58
2023-01-11T08:07:57.236Z,8.78
2023-01-11T08:10:27.391Z,8.85
2023-01-11T08:13:14.124Z,8.69
2023-01-11T08:15:44.979Z,8.69
2023-01-11T08:18:14.703Z,7.91
2023-01-11T08:20:47.759Z,8.79
2023-01-11T08:23:17.537Z,8.65
2023-01-11T08:25:49.850Z,8.51
2023-01-11T08:28:19.397Z,8.58
2023-01-11T08:30:48.608Z,8.57
2023-01-11T08:33:18.519Z,8.49
2023-01-11T08:35:49.389Z,8.50
2023-01-11T08:38:19.016Z,8.10
2023-01-11T08:40:48.625Z,8.56
2023-01-11T08:43:18.055Z,8.52
2023-01-11T08:45:47.321Z,8.58
2023-01-11T08:48:17.391Z,8.37
2023-01-11T08:50:46.888Z,8.42
2023-01-11T08:53:17.834Z,8.42
2023-01-11T08:55:49.428Z,8.45
2023-01-11T08:58:21.412Z,8.45
2023-01-11T09:00:51.428Z,8.47
2023-01-11T09:03:21.202Z,8.73
2023-01-11T09:05:54.052Z,8.64
2023-01-11T09:08:25.321Z,8.50
2023-01-11T09:10:56.461Z,8.57
2023-01-11T09:13:26.345Z,8.47
2023-01-11T09:15:57.822Z,8.54
2023-01-11T09:18:27.871Z,8.60
2023-01-11T09:20:57.012Z,8.61
2023-01-11T09:23:30.454Z,8.73
2023-01-11T09:26:01.001Z,8.60
2023-01-11T09:28:30.769Z,8.57
2023-01-11T09:31:00.416Z,8.74
2023-01-11T09:33:30.460Z,8.85
2023-01-11T09:36:01.939Z,8.70
2023-01-11T09:38:34.233Z,8.86
2023-01-11T09:41:23.329Z,8.96
2023-01-11T09:44:02.089Z,9.08
2023-01-11T09:46:33.490Z,9.13
2023-01-11T09:49:03.898Z,9.32
2023-01-11T09:51:39.650Z,9.17
2023-01-11T09:54:18.919Z,9.15
2023-01-11T09:56:57.858Z,9.11
2023-01-11T09:59:34.982Z,9.19
2023-01-11T10:02:21.842Z,9.40
2023-01-11T10:05:11.338Z,9.43
2023-01-11T10:14:01.346Z,9.08
2023-01-11T10:18:38.531Z,9.66
2023-01-11T10:19:57.967Z,9.52
2023-01-11T10:22:36.523Z,9.75
2023-01-11T10:25:21.927Z,9.84
2023-01-11T10:27:57.275Z,9.80
2023-01-11T10:30:53.834Z,9.88
2023-01-11T10:33:46.632Z,9.98
2023-01-11T10:36:34.875Z,10.03
2023-01-11T10:39:21.892Z,9.88
2023-01-11T10:42:00.853Z,9.65
2023-01-11T10:44:38.150Z,9.96
2023-01-11T10:47:16.297Z,10.09
2023-01-11T10:49:55.322Z,10.10
2023-01-11T10:52:35.220Z,10.11
2023-01-11T10:55:14.223Z,10.26
2023-01-11T10:58:01.705Z,10.37
2023-01-11T11:00:48.787Z,10.48
2023-01-11T11:03:45.129Z,10.24
2023-01-11T11:06:21.577Z,9.86
2023-01-11T11:09:06.142Z,10.48
2023-01-11T11:11:42.429Z,10.43
2023-01-11T11:14:21.274Z,10.62
2023-01-11T11:17:05.290Z,10.64
2023-01-11T11:19:35.049Z,10.68
2023-01-11T11:22:04.534Z,10.56
2023-01-11T11:24:40.634Z,10.53
2023-01-11T11:27:20.741Z,10.35
2023-01-11T11:29:55.734Z,10.52
2023-01-11T11:32:30.694Z,10.59
2023-01-11T11:35:00.625Z,10.40
2023-01-11T11:37:33.853Z,10.36
2023-01-11T11:40:04.075Z,10.54
2023-01-11T11:42:33.395Z,10.41
2023-01-11T11:45:17.374Z,10.26
2023-01-11T11:48:03.071Z,10.42
2023-01-11T11:50:46.413Z,10.26
2023-01-11T11:53:38.536Z,10.09
2023-01-11T11:56:22.112Z,10.26
2023-01-11T11:58:52.589Z,10.33
2023-01-11T12:01:27.762Z,10.24
2023-01-11T12:04:01.956Z,10.03
2023-01-11T12:06:32.376Z,9.88
2023-01-11T12:09:03.707Z,9.65
2023-01-11T12:11:35.524Z,9.74
2023-01-11T12:14:18.193Z,9.76
2023-01-11T12:16:48.157Z,9.73
2023-01-11T12:19:30.767Z,9.70
2023-01-11T12:22:19.520Z,9.74
2023-01-11T12:25:07.341Z,9.78
2023-01-11T12:27:44.242Z,9.84
2023-01-11T12:30:25.696Z,9.79
2023-01-11T12:33:29.908Z,9.96
2023-01-11T12:36:06.592Z,9.78
2023-01-11T12:38:42.824Z,9.80
2023-01-11T12:41:50.258Z,9.89
2023-01-11T12:44:40.217Z,9.84
2023-01-11T12:47:44.956Z,9.87
2023-01-11T12:50:22.474Z,9.72
2023-01-11T12:53:07.963Z,9.94
2023-01-11T12:55:49.264Z,9.14
2023-01-11T12:58:27.364Z,9.82
2023-01-11T13:01:16.641Z,9.74
2023-01-11T13:04:23.428Z,9.87
2023-01-11T13:07:03.150Z,8.49
2023-01-11T13:09:45.103Z,9.67
2023-01-11T13:12:20.006Z,9.83
2023-01-11T13:15:12.306Z,9.91
2023-01-11T13:17:48.461Z,9.78
2023-01-11T13:20:30.946Z,10.01
2023-01-11T13:23:03.950Z,10.04
2023-01-11T13:25:37.624Z,9.87
2023-01-11T13:28:23.984Z,9.76
2023-01-11T13:30:53.238Z,9.94
2023-01-11T13:33:26.488Z,9.85
2023-01-11T13:36:01.865Z,9.74
2023-01-11T13:38:39.682Z,9.97
2023-01-11T13:41:18.778Z,9.90
2023-01-11T13:43:53.851Z,10.06
2023-01-11T13:46:41.207Z,10.06
2023-01-11T13:49:20.754Z,10.14
2023-01-11T13:51:55.295Z,10.17
2023-01-11T13:54:32.352Z,10.07
2023-01-11T13:57:11.836Z,10.08
2023-01-11T13:59:46.302Z,10.13
2023-01-11T14:02:23.436Z,10.24
2023-01-11T14:05:00.034Z,9.96
2023-01-11T14:07:40.235Z,9.89
2023-01-11T14:10:32.153Z,9.89
2023-01-11T14:13:39.288Z,9.97
2023-01-11T14:16:17.858Z,9.75
2023-01-11T14:18:55.113Z,9.79
2023-01-11T14:21:31.556Z,9.70
2023-01-11T14:24:03.155Z,9.71
2023-01-11T14:26:58.586Z,9.66
2023-01-11T14:29:59.361Z,9.00
2023-01-11T14:32:57.745Z,9.58
2023-01-11T14:36:04.835Z,9.44
2023-01-11T14:39:01.971Z,9.48
2023-01-11T14:42:09.450Z,9.35
2023-01-11T14:45:06.432Z,9.60
2023-01-11T14:47:55.325Z,9.50
2023-01-11T14:50:36.006Z,9.52
2023-01-11T14:53:06.713Z,9.26
2023-01-11T14:55:45.129Z,9.39
2023-01-11T14:58:21.384Z,9.23
2023-01-11T15:01:11.693Z,9.03
2023-01-11T15:03:55.477Z,9.23
2023-01-11T15:06:32.416Z,7.88
2023-01-11T15:09:02.516Z,9.14
2023-01-11T15:11:35.118Z,9.24
2023-01-11T15:14:32.688Z,9.18
2023-01-11T15:17:21.884Z,9.17
2023-01-11T15:19:53.913Z,8.55
2023-01-11T15:22:31.251Z,9.14
2023-01-11T15:25:03.348Z,9.24
2023-01-11T15:27:35.360Z,9.13
2023-01-11T15:30:30.445Z,9.14
2023-01-11T15:33:38.517Z,9.00
2023-01-11T15:36:11.439Z,8.76
2023-01-11T15:38:52.249Z,9.06
2023-01-11T15:41:59.922Z,9.09
2023-01-11T15:44:45.112Z,8.82
2023-01-11T15:47:35.113Z,8.99
2023-01-11T15:50:42.909Z,8.86
2023-01-11T15:53:42.066Z,8.80
2023-01-11T15:57:01.326Z,8.63
2023-01-11T16:00:23.834Z,8.72
2023-01-11T16:03:24.668Z,8.76
2023-01-11T16:06:02.985Z,8.76
2023-01-11T16:08:36.978Z,8.76
2023-01-11T16:11:14.350Z,8.62
2023-01-11T16:13:57.186Z,8.69
2023-01-11T16:16:31.824Z,8.86
2023-01-11T16:19:08.276Z,8.60
2023-01-11T16:21:40.544Z,8.69
2023-01-11T16:24:15.679Z,8.70
2023-01-11T16:26:51.891Z,8.74
2023-01-11T16:29:27.580Z,8.75
2023-01-11T16:31:59.198Z,8.51
2023-01-11T16:34:29.367Z,8.64
2023-01-11T16:36:58.846Z,8.66
2023-01-11T16:39:31.522Z,8.64
2023-01-11T16:42:06.007Z,8.76
2023-01-11T16:44:44.621Z,8.88
2023-01-11T16:47:16.870Z,8.84
2023-01-11T16:49:49.521Z,8.73
2023-01-11T16:52:38.907Z,8.93
2023-01-11T16:55:19.368Z,8.68
2023-01-11T16:57:54.892Z,8.58
2023-01-11T17:00:36.435Z,8.55
2023-01-11T17:03:23.895Z,8.51
2023-01-11T17:06:26.673Z,8.78
2023-01-11T17:09:00.034Z,8.61
2023-01-11T17:11:36.237Z,8.88
2023-01-11T17:14:32.456Z,8.59
2023-01-11T17:17:05.513Z,8.67
2023-01-11T17:19:37.958Z,8.71
2023-01-11T17:22:10.051Z,8.65
2023-01-11T17:24:44.684Z,8.75
2023-01-11T17:27:20.291Z,8.71
2023-01-11T17:29:50.631Z,8.59
2023-01-11T17:32:37.356Z,8.77
2023-01-11T17:35:14.844Z,8.52
2023-01-11T17:37:45.565Z,8.61
2023-01-11T17:40:23.306Z,8.52
2023-01-11T17:43:10.767Z,8.54
2023-01-11T17:45:40.355Z,8.54
2023-01-11T17:48:16.822Z,8.48
2023-01-11T17:50:49.874Z,8.47
2023-01-11T17:53:26.023Z,8.39
2023-01-11T17:55:56.904Z,7.64
2023-01-11T17:58:29.555Z,8.38
2023-01-11T18:01:15.029Z,8.18
2023-01-11T18:03:48.034Z,8.13
2023-01-11T18:06:28.900Z,8.22
2023-01-11T18:09:00.393Z,8.12
2023-01-11T18:11:31.753Z,8.10
2023-01-11T18:14:04.077Z,7.89
2023-01-11T18:16:34.211Z,7.91
2023-01-11T18:19:25.641Z,7.97
2023-01-11T18:21:55.851Z,8.02
2023-01-11T18:24:35.174Z,8.02
2023-01-11T18:27:15.392Z,7.91
2023-01-11T18:29:49.961Z,7.85
2023-01-11T18:32:20.244Z,7.94
2023-01-11T18:34:54.554Z,7.79
2023-01-11T18:37:23.886Z,7.83
2023-01-11T18:39:54.204Z,7.76
2023-01-11T18:42:30.661Z,7.79
2023-01-11T18:45:02.309Z,7.88
2023-01-11T18:47:31.565Z,7.80
2023-01-11T18:50:02.229Z,7.74
2023-01-11T18:52:31.277Z,7.72
2023-01-11T18:55:00.877Z,7.75
2023-01-11T18:57:29.961Z,7.54
2023-01-11T18:59:59.971Z,7.39
2023-01-11T19:02:31.079Z,7.81
2023-01-11T19:05:01.715Z,7.86
2023-01-11T19:07:30.982Z,7.60
2023-01-11T19:10:02.553Z,7.77
2023-01-11T19:12:31.808Z,7.95
2023-01-11T19:15:01.162Z,7.67
2023-01-11T19:17:30.170Z,7.62
2023-01-11T19:20:02.875Z,7.65
2023-01-11T19:22:32.706Z,7.60
2023-01-11T19:25:02.483Z,7.61
2023-01-11T19:27:32.296Z,7.54
2023-01-11T19:30:02.064Z,7.67
2023-01-11T19:32:31.352Z,7.62
2023-01-11T19:35:01.044Z,7.60
2023-01-11T19:37:32.927Z,7.53
2023-01-11T19:40:05.830Z,7.49
2023-01-11T19:42:35.247Z,6.66
2023-01-11T19:45:05.401Z,7.35
2023-01-11T19:47:34.576Z,7.43
2023-01-11T19:50:03.955Z,7.51
2023-01-11T19:52:34.797Z,7.43
2023-01-11T19:55:04.232Z,7.40
2023-01-11T19:57:34.462Z,7.36
2023-01-11T20:00:05.839Z,7.33
2023-01-11T20:02:42.355Z,7.35
2023-01-11T20:05:13.764Z,7.43
2023-01-11T20:07:44.213Z,7.54
2023-01-11T20:10:13.754Z,7.47
2023-01-11T20:12:43.336Z,7.34
2023-01-11T20:15:14.456Z,7.37
2023-01-11T20:17:43.840Z,7.47
2023-01-11T20:20:15.162Z,7.39
2023-01-11T20:22:47.241Z,7.51
2023-01-11T20:25:17.817Z,7.52
2023-01-11T20:27:49.802Z,7.55
2023-01-11T20:30:19.546Z,7.49
2023-01-11T20:32:50.533Z,7.57
2023-01-11T20:35:20.278Z,7.57
2023-01-11T20:37:51.777Z,6.87
2023-01-11T20:40:22.322Z,6.80
2023-01-11T20:42:52.312Z,7.37
2023-01-11T20:45:22.112Z,7.49
2023-01-11T20:47:52.822Z,7.42
2023-01-11T20:50:22.864Z,7.68
2023-01-11T20:52:54.089Z,7.68
2023-01-11T20:55:24.464Z,7.80
2023-01-11T20:57:54.615Z,7.75
2023-01-11T21:00:25.029Z,7.94
2023-01-11T21:02:54.836Z,8.01
2023-01-11T21:05:27.158Z,7.38
2023-01-11T21:07:57.905Z,8.20
2023-01-11T21:10:27.362Z,7.98
2023-01-11T21:15:29.537Z,7.89
2023-01-11T21:17:58.883Z,7.80
2023-01-11T21:20:28.623Z,7.95
2023-01-11T21:22:59.234Z,8.20
2023-01-11T21:25:29.385Z,8.03
2023-01-11T21:28:00.273Z,8.07
2023-01-11T21:30:29.590Z,7.33
2023-01-11T21:32:59.080Z,7.41
2023-01-11T21:35:28.603Z,8.10
2023-01-11T21:38:00.245Z,8.21
2023-01-11T21:40:32.177Z,8.19
2023-01-11T21:43:02.676Z,8.11
2023-01-11T21:45:32.027Z,8.22
2023-01-11T21:48:01.470Z,8.34
2023-01-11T21:50:30.422Z,8.24
2023-01-11T21:53:01.865Z,8.22
2023-01-11T21:55:31.057Z,8.29
2023-01-11T21:58:00.593Z,8.37
2023-01-11T22:00:31.203Z,8.36
2023-01-11T22:03:01.430Z,8.50
2023-01-11T22:05:32.458Z,8.36
2023-01-11T22:08:02.818Z,8.35
2023-01-11T22:10:33.376Z,8.19
2023-01-11T22:13:05.473Z,8.18
2023-01-11T22:15:35.499Z,8.21
2023-01-11T22:18:08.095Z,8.49
2023-01-11T22:20:37.536Z,8.29
2023-01-11T22:23:08.528Z,8.12
2023-01-11T22:25:38.281Z,8.03
2023-01-11T22:28:07.981Z,8.14
2023-01-11T22:30:37.662Z,8.31
2023-01-11T22:33:07.977Z,8.23
2023-01-11T22:35:37.917Z,8.43
2023-01-11T22:38:08.680Z,8.45
2023-01-11T22:40:38.077Z,8.37
2023-01-11T22:43:09.215Z,8.37
2023-01-11T22:45:41.195Z,8.43
2023-01-11T22:48:10.894Z,8.41
2023-01-11T22:50:40.413Z,8.46
2023-01-11T22:53:13.940Z,7.57
2023-01-11T22:55:43.923Z,8.21
2023-01-11T22:58:14.049Z,8.23
2023-01-11T23:00:43.895Z,8.36
2023-01-11T23:03:14.815Z,8.29
2023-01-11T23:05:47.095Z,8.46
2023-01-11T23:08:18.876Z,8.19
2023-01-11T23:10:48.787Z,8.15
2023-01-11T23:13:35.650Z,8.37
2023-01-11T23:16:05.161Z,8.17
2023-01-11T23:18:34.696Z,8.16
2023-01-11T23:21:04.994Z,8.30
2023-01-11T23:23:35.719Z,8.21
2023-01-11T23:26:06.705Z,8.31
2023-01-11T23:28:37.180Z,8.37
2023-01-11T23:31:15.110Z,8.44
2023-01-11T23:33:45.345Z,8.41
2023-01-11T23:36:19.137Z,8.39
2023-01-11T23:38:52.158Z,8.41
2023-01-11T23:41:40.860Z,8.29
2023-01-11T23:44:12.333Z,8.66
2023-01-11T23:47:00.757Z,8.37
2023-01-11T23:49:31.708Z,8.35
2023-01-11T23:52:01.441Z,8.24
2023-01-11T23:54:34.501Z,8.26
2023-01-11T23:57:05.760Z,8.27
2023-01-11T23:59:36.105Z,8.32
